sensor_id;sensor_type;location;lat;lon;timestamp;pressure;altitude;pressure_sealevel;temperature;humidity
64352;BME280;50680;52.626;-8.668;2023-06-10T00:02:06;101080.78;;;18.82;100.00
64352;BME280;50680;52.626;-8.668;2023-06-10T00:04:34;101079.50;;;18.76;100.00
64352;BME280;50680;52.626;-8.668;2023-06-10T00:07:04;101071.41;;;18.77;100.00
64352;BME280;50680;52.626;-8.668;2023-06-10T00:09:36;101066.34;;;18.74;100.00
64352;BME280;50680;52.626;-8.668;2023-06-10T00:12:07;101074.47;;;18.73;100.00
64352;BME280;50680;52.626;-8.668;2023-06-10T00:14:38;101075.56;;;18.70;100.00
64352;BME280;50680;52.626;-8.668;2023-06-10T00:17:05;101078.38;;;18.69;100.00
64352;BME280;50680;52.626;-8.668;2023-06-10T00:19:37;101064.50;;;18.65;100.00
64352;BME280;50680;52.626;-8.668;2023-06-10T00:22:08;101070.09;;;18.62;100.00
64352;BME280;50680;52.626;-8.668;2023-06-10T00:24:37;101069.66;;;18.57;100.00
64352;BME280;50680;52.626;-8.668;2023-06-10T00:27:04;101065.44;;;18.54;100.00
64352;BME280;50680;52.626;-8.668;2023-06-10T00:29:34;101068.22;;;18.53;100.00
64352;BME280;50680;52.626;-8.668;2023-06-10T00:32:00;101065.56;;;18.53;100.00
64352;BME280;50680;52.626;-8.668;2023-06-10T00:34:28;101067.25;;;18.54;100.00
64352;BME280;50680;52.626;-8.668;2023-06-10T00:36:54;101067.97;;;18.56;100.00
64352;BME280;50680;52.626;-8.668;2023-06-10T00:39:21;101068.22;;;18.53;100.00
64352;BME280;50680;52.626;-8.668;2023-06-10T00:41:48;101061.53;;;18.49;100.00
64352;BME280;50680;52.626;-8.668;2023-06-10T00:44:16;101068.22;;;18.43;100.00
64352;BME280;50680;52.626;-8.668;2023-06-10T00:46:43;101073.09;;;18.48;100.00
64352;BME280;50680;52.626;-8.668;2023-06-10T00:49:10;101065.13;;;18.48;100.00
64352;BME280;50680;52.626;-8.668;2023-06-10T00:51:38;101066.66;;;18.40;100.00
64352;BME280;50680;52.626;-8.668;2023-06-10T00:54:06;101057.53;;;18.33;100.00
64352;BME280;50680;52.626;-8.668;2023-06-10T00:56:35;101059.56;;;18.20;100.00
64352;BME280;50680;52.626;-8.668;2023-06-10T00:59:02;101051.97;;;18.06;100.00
64352;BME280;50680;52.626;-8.668;2023-06-10T01:01:29;101058.78;;;17.98;100.00
64352;BME280;50680;52.626;-8.668;2023-06-10T01:03:56;101052.56;;;17.88;100.00
64352;BME280;50680;52.626;-8.668;2023-06-10T01:07:04;101042.72;;;17.79;100.00
64352;BME280;50680;52.626;-8.668;2023-06-10T01:09:43;101052.13;;;17.72;100.00
64352;BME280;50680;52.626;-8.668;2023-06-10T01:12:26;101051.09;;;17.63;100.00
64352;BME280;50680;52.626;-8.668;2023-06-10T01:14:54;101045.50;;;17.56;100.00
64352;BME280;50680;52.626;-8.668;2023-06-10T01:17:21;101045.03;;;17.51;100.00
64352;BME280;50680;52.626;-8.668;2023-06-10T01:19:58;101041.53;;;17.51;100.00
64352;BME280;50680;52.626;-8.668;2023-06-10T01:22:26;101038.28;;;17.47;100.00
64352;BME280;50680;52.626;-8.668;2023-06-10T01:24:59;101039.41;;;17.44;100.00
64352;BME280;50680;52.626;-8.668;2023-06-10T01:27:30;101038.81;;;17.41;100.00
64352;BME280;50680;52.626;-8.668;2023-06-10T01:30:04;101031.81;;;17.40;100.00
64352;BME280;50680;52.626;-8.668;2023-06-10T01:32:37;101025.34;;;17.33;100.00
64352;BME280;50680;52.626;-8.668;2023-06-10T01:35:08;101025.09;;;17.36;100.00
64352;BME280;50680;52.626;-8.668;2023-06-10T01:37:37;101019.69;;;17.37;100.00
64352;BME280;50680;52.626;-8.668;2023-06-10T01:40:07;101012.81;;;17.35;100.00
64352;BME280;50680;52.626;-8.668;2023-06-10T01:42:35;101017.88;;;17.38;100.00
64352;BME280;50680;52.626;-8.668;2023-06-10T01:45:02;101007.25;;;17.38;100.00
64352;BME280;50680;52.626;-8.668;2023-06-10T01:47:29;101002.53;;;17.41;100.00
64352;BME280;50680;52.626;-8.668;2023-06-10T01:49:56;100998.94;;;17.42;100.00
64352;BME280;50680;52.626;-8.668;2023-06-10T01:52:23;100997.25;;;17.41;100.00
64352;BME280;50680;52.626;-8.668;2023-06-10T01:54:50;101002.28;;;17.44;100.00
64352;BME280;50680;52.626;-8.668;2023-06-10T01:57:18;101003.13;;;17.45;100.00
64352;BME280;50680;52.626;-8.668;2023-06-10T01:59:45;101008.19;;;17.48;100.00
64352;BME280;50680;52.626;-8.668;2023-06-10T02:02:12;101005.66;;;17.46;100.00
64352;BME280;50680;52.626;-8.668;2023-06-10T02:04:39;101013.03;;;17.43;100.00
64352;BME280;50680;52.626;-8.668;2023-06-10T02:07:06;101001.72;;;17.41;100.00
64352;BME280;50680;52.626;-8.668;2023-06-10T02:09:33;100995.28;;;17.43;100.00
64352;BME280;50680;52.626;-8.668;2023-06-10T02:12:04;101008.19;;;17.48;100.00
64352;BME280;50680;52.626;-8.668;2023-06-10T02:14:33;100994.78;;;17.50;100.00
64352;BME280;50680;52.626;-8.668;2023-06-10T02:17:00;100997.03;;;17.54;100.00
64352;BME280;50680;52.626;-8.668;2023-06-10T02:19:27;101003.78;;;17.58;100.00
64352;BME280;50680;52.626;-8.668;2023-06-10T02:21:54;101003.06;;;17.56;100.00
64352;BME280;50680;52.626;-8.668;2023-06-10T02:24:21;101005.84;;;17.55;100.00
64352;BME280;50680;52.626;-8.668;2023-06-10T02:26:48;101013.81;;;17.55;100.00
64352;BME280;50680;52.626;-8.668;2023-06-10T02:29:15;101025.00;;;17.58;100.00
64352;BME280;50680;52.626;-8.668;2023-06-10T02:31:42;101029.31;;;17.59;100.00
64352;BME280;50680;52.626;-8.668;2023-06-10T02:34:09;101045.34;;;17.58;100.00
64352;BME280;50680;52.626;-8.668;2023-06-10T02:36:36;101051.50;;;17.58;100.00
64352;BME280;50680;52.626;-8.668;2023-06-10T02:39:03;101077.31;;;17.56;100.00
64352;BME280;50680;52.626;-8.668;2023-06-10T02:41:31;101094.19;;;17.55;100.00
64352;BME280;50680;52.626;-8.668;2023-06-10T02:43:58;101109.13;;;17.56;100.00
64352;BME280;50680;52.626;-8.668;2023-06-10T02:46:25;101113.22;;;17.49;100.00
64352;BME280;50680;52.626;-8.668;2023-06-10T02:48:51;101114.38;;;17.35;100.00
64352;BME280;50680;52.626;-8.668;2023-06-10T02:51:18;101105.88;;;17.20;100.00
64352;BME280;50680;52.626;-8.668;2023-06-10T02:53:45;101103.00;;;17.12;100.00
64352;BME280;50680;52.626;-8.668;2023-06-10T02:56:15;101105.81;;;16.99;100.00
64352;BME280;50680;52.626;-8.668;2023-06-10T02:58:42;101091.13;;;16.84;100.00
64352;BME280;50680;52.626;-8.668;2023-06-10T03:01:09;101090.50;;;16.69;100.00
64352;BME280;50680;52.626;-8.668;2023-06-10T03:03:36;101083.03;;;16.63;100.00
64352;BME280;50680;52.626;-8.668;2023-06-10T03:06:12;101097.00;;;16.53;100.00
64352;BME280;50680;52.626;-8.668;2023-06-10T03:08:39;101096.53;;;16.48;100.00
64352;BME280;50680;52.626;-8.668;2023-06-10T03:11:06;101088.47;;;16.39;100.00
64352;BME280;50680;52.626;-8.668;2023-06-10T03:13:33;101091.47;;;16.45;100.00
64352;BME280;50680;52.626;-8.668;2023-06-10T03:16:00;101087.16;;;16.44;100.00
64352;BME280;50680;52.626;-8.668;2023-06-10T03:18:28;101084.63;;;16.43;100.00
64352;BME280;50680;52.626;-8.668;2023-06-10T03:20:55;101090.50;;;16.46;100.00
64352;BME280;50680;52.626;-8.668;2023-06-10T03:23:23;101086.66;;;16.50;100.00
64352;BME280;50680;52.626;-8.668;2023-06-10T03:25:50;101086.78;;;16.49;100.00
64352;BME280;50680;52.626;-8.668;2023-06-10T03:28:17;101085.22;;;16.46;100.00
64352;BME280;50680;52.626;-8.668;2023-06-10T03:30:44;101094.25;;;16.55;100.00
64352;BME280;50680;52.626;-8.668;2023-06-10T03:33:11;101083.19;;;16.61;100.00
64352;BME280;50680;52.626;-8.668;2023-06-10T03:35:38;101084.00;;;16.62;100.00
64352;BME280;50680;52.626;-8.668;2023-06-10T03:38:05;101064.78;;;16.60;100.00
64352;BME280;50680;52.626;-8.668;2023-06-10T03:40:32;101062.13;;;16.60;100.00
64352;BME280;50680;52.626;-8.668;2023-06-10T03:43:00;101060.06;;;16.52;100.00
64352;BME280;50680;52.626;-8.668;2023-06-10T03:45:27;101055.75;;;16.51;100.00
64352;BME280;50680;52.626;-8.668;2023-06-10T03:47:54;101058.28;;;16.52;100.00
64352;BME280;50680;52.626;-8.668;2023-06-10T03:50:22;101045.75;;;16.54;100.00
64352;BME280;50680;52.626;-8.668;2023-06-10T03:52:50;101042.75;;;16.48;100.00
64352;BME280;50680;52.626;-8.668;2023-06-10T03:55:17;101022.88;;;16.53;100.00
64352;BME280;50680;52.626;-8.668;2023-06-10T03:57:44;101017.47;;;16.55;100.00
64352;BME280;50680;52.626;-8.668;2023-06-10T04:00:12;101020.59;;;16.49;100.00
64352;BME280;50680;52.626;-8.668;2023-06-10T04:02:39;101017.00;;;16.50;100.00
64352;BME280;50680;52.626;-8.668;2023-06-10T04:05:14;101019.16;;;16.45;100.00
64352;BME280;50680;52.626;-8.668;2023-06-10T04:07:41;101029.16;;;16.41;100.00
64352;BME280;50680;52.626;-8.668;2023-06-10T04:10:10;101028.31;;;16.52;100.00
64352;BME280;50680;52.626;-8.668;2023-06-10T04:12:37;101024.34;;;16.58;100.00
64352;BME280;50680;52.626;-8.668;2023-06-10T04:15:05;101018.19;;;16.57;100.00
64352;BME280;50680;52.626;-8.668;2023-06-10T04:17:32;101019.41;;;16.53;100.00
64352;BME280;50680;52.626;-8.668;2023-06-10T04:19:59;101021.22;;;16.52;100.00
64352;BME280;50680;52.626;-8.668;2023-06-10T04:22:27;101014.94;;;16.53;100.00
64352;BME280;50680;52.626;-8.668;2023-06-10T04:24:54;101018.31;;;16.55;100.00
64352;BME280;50680;52.626;-8.668;2023-06-10T04:27:20;101014.72;;;16.57;100.00
64352;BME280;50680;52.626;-8.668;2023-06-10T04:29:47;101011.81;;;16.60;100.00
64352;BME280;50680;52.626;-8.668;2023-06-10T04:32:14;101009.88;;;16.62;100.00
64352;BME280;50680;52.626;-8.668;2023-06-10T04:34:41;101011.56;;;16.63;100.00
64352;BME280;50680;52.626;-8.668;2023-06-10T04:37:08;101015.66;;;16.67;100.00
64352;BME280;50680;52.626;-8.668;2023-06-10T04:39:34;101007.00;;;16.65;100.00
64352;BME280;50680;52.626;-8.668;2023-06-10T04:42:05;101005.19;;;16.65;100.00
64352;BME280;50680;52.626;-8.668;2023-06-10T04:44:32;101001.13;;;16.61;100.00
64352;BME280;50680;52.626;-8.668;2023-06-10T04:46:59;101000.38;;;16.59;100.00
64352;BME280;50680;52.626;-8.668;2023-06-10T04:49:26;100995.94;;;16.60;100.00
64352;BME280;50680;52.626;-8.668;2023-06-10T04:51:53;100997.59;;;16.61;100.00
64352;BME280;50680;52.626;-8.668;2023-06-10T04:54:19;101000.97;;;16.63;100.00
64352;BME280;50680;52.626;-8.668;2023-06-10T04:56:46;101000.97;;;16.63;100.00
64352;BME280;50680;52.626;-8.668;2023-06-10T04:59:13;100997.38;;;16.64;100.00
64352;BME280;50680;52.626;-8.668;2023-06-10T05:01:41;101001.13;;;16.61;100.00
64352;BME280;50680;52.626;-8.668;2023-06-10T05:04:08;100999.41;;;16.60;100.00
64352;BME280;50680;52.626;-8.668;2023-06-10T05:06:35;101002.31;;;16.57;100.00
64352;BME280;50680;52.626;-8.668;2023-06-10T05:09:03;100997.88;;;16.58;100.00
64352;BME280;50680;52.626;-8.668;2023-06-10T05:11:30;101000.88;;;16.53;100.00
64352;BME280;50680;52.626;-8.668;2023-06-10T05:13:57;100991.13;;;16.53;100.00
64352;BME280;50680;52.626;-8.668;2023-06-10T05:16:23;101000.38;;;16.59;100.00
64352;BME280;50680;52.626;-8.668;2023-06-10T05:18:50;101001.25;;;16.60;100.00
64352;BME280;50680;52.626;-8.668;2023-06-10T05:21:18;101003.75;;;16.61;100.00
64352;BME280;50680;52.626;-8.668;2023-06-10T05:23:45;100999.31;;;16.62;100.00
64352;BME280;50680;52.626;-8.668;2023-06-10T05:26:12;101001.72;;;16.65;100.00
64352;BME280;50680;52.626;-8.668;2023-06-10T05:28:39;101004.94;;;16.68;100.00
64352;BME280;50680;52.626;-8.668;2023-06-10T05:31:06;100995.31;;;16.67;100.00
64352;BME280;50680;52.626;-8.668;2023-06-10T05:33:33;101000.59;;;16.67;100.00
64352;BME280;50680;52.626;-8.668;2023-06-10T05:36:00;101004.09;;;16.68;100.00
64352;BME280;50680;52.626;-8.668;2023-06-10T05:38:26;101003.13;;;16.69;100.00
64352;BME280;50680;52.626;-8.668;2023-06-10T05:40:53;101002.19;;;16.70;100.00
64352;BME280;50680;52.626;-8.668;2023-06-10T05:43:20;101001.78;;;16.74;100.00
64352;BME280;50680;52.626;-8.668;2023-06-10T05:45:47;100995.06;;;16.70;100.00
64352;BME280;50680;52.626;-8.668;2023-06-10T05:48:14;101004.56;;;16.73;100.00
64352;BME280;50680;52.626;-8.668;2023-06-10T05:50:41;101010.84;;;16.72;100.00
64352;BME280;50680;52.626;-8.668;2023-06-10T05:53:11;101004.72;;;16.71;100.00
64352;BME280;50680;52.626;-8.668;2023-06-10T05:55:42;101012.00;;;16.79;100.00
64352;BME280;50680;52.626;-8.668;2023-06-10T05:58:10;101013.97;;;16.77;100.00
64352;BME280;50680;52.626;-8.668;2023-06-10T06:00:39;101015.78;;;16.77;100.00
64352;BME280;50680;52.626;-8.668;2023-06-10T06:03:09;101009.59;;;16.76;100.00
64352;BME280;50680;52.626;-8.668;2023-06-10T06:05:37;101017.56;;;16.76;100.00
64352;BME280;50680;52.626;-8.668;2023-06-10T06:08:05;101009.72;;;16.74;100.00
64352;BME280;50680;52.626;-8.668;2023-06-10T06:10:32;101015.88;;;16.75;100.00
64352;BME280;50680;52.626;-8.668;2023-06-10T06:13:00;101009.13;;;16.71;100.00
64352;BME280;50680;52.626;-8.668;2023-06-10T06:15:27;101012.03;;;16.68;100.00
64352;BME280;50680;52.626;-8.668;2023-06-10T06:17:54;101007.72;;;16.67;100.00
64352;BME280;50680;52.626;-8.668;2023-06-10T06:20:22;101008.47;;;16.58;100.00
64352;BME280;50680;52.626;-8.668;2023-06-10T06:22:49;101014.09;;;16.64;100.00
64352;BME280;50680;52.626;-8.668;2023-06-10T06:25:16;101013.75;;;16.58;100.00
64352;BME280;50680;52.626;-8.668;2023-06-10T06:27:43;101014.72;;;16.57;100.00
64352;BME280;50680;52.626;-8.668;2023-06-10T06:30:10;101003.66;;;16.51;100.00
64352;BME280;50680;52.626;-8.668;2023-06-10T06:32:37;101006.19;;;16.53;100.00
64352;BME280;50680;52.626;-8.668;2023-06-10T06:35:04;101008.94;;;16.51;100.00
64352;BME280;50680;52.626;-8.668;2023-06-10T06:37:35;101004.34;;;16.53;100.00
64352;BME280;50680;52.626;-8.668;2023-06-10T06:40:02;100996.91;;;16.59;100.00
64352;BME280;50680;52.626;-8.668;2023-06-10T06:42:30;100996.31;;;16.55;100.00
64352;BME280;50680;52.626;-8.668;2023-06-10T06:44:57;100997.75;;;16.48;100.00
64352;BME280;50680;52.626;-8.668;2023-06-10T06:47:24;101000.28;;;16.49;100.00
64352;BME280;50680;52.626;-8.668;2023-06-10T06:49:51;101008.94;;;16.51;100.00
64352;BME280;50680;52.626;-8.668;2023-06-10T06:52:18;101003.66;;;16.51;100.00
64352;BME280;50680;52.626;-8.668;2023-06-10T06:54:46;101007.00;;;16.53;100.00
64352;BME280;50680;52.626;-8.668;2023-06-10T06:57:12;101001.72;;;16.53;100.00
64352;BME280;50680;52.626;-8.668;2023-06-10T06:59:39;101010.38;;;16.55;100.00
64352;BME280;50680;52.626;-8.668;2023-06-10T07:02:06;101003.28;;;16.56;100.00
64352;BME280;50680;52.626;-8.668;2023-06-10T07:04:33;101011.94;;;16.58;100.00
64352;BME280;50680;52.626;-8.668;2023-06-10T07:07:00;101016.66;;;16.54;100.00
64352;BME280;50680;52.626;-8.668;2023-06-10T07:09:27;101018.19;;;16.57;100.00
64352;BME280;50680;52.626;-8.668;2023-06-10T07:11:54;101021.81;;;16.56;100.00
64352;BME280;50680;52.626;-8.668;2023-06-10T07:14:21;101021.81;;;16.56;100.00
64352;BME280;50680;52.626;-8.668;2023-06-10T07:16:48;101024.34;;;16.58;100.00
64352;BME280;50680;52.626;-8.668;2023-06-10T07:19:16;101031.06;;;16.62;100.00
64352;BME280;50680;52.626;-8.668;2023-06-10T07:21:43;101034.66;;;16.61;100.00
64352;BME280;50680;52.626;-8.668;2023-06-10T07:24:10;101037.31;;;16.61;100.00
64352;BME280;50680;52.626;-8.668;2023-06-10T07:26:36;101036.97;;;16.65;100.00
64352;BME280;50680;52.626;-8.668;2023-06-10T07:29:03;101044.66;;;16.68;100.00
64352;BME280;50680;52.626;-8.668;2023-06-10T07:31:30;101037.56;;;16.69;100.00
64352;BME280;50680;52.626;-8.668;2023-06-10T07:33:57;101049.56;;;16.73;100.00
64352;BME280;50680;52.626;-8.668;2023-06-10T07:36:24;101049.56;;;16.73;100.00
64352;BME280;50680;52.626;-8.668;2023-06-10T07:38:56;101059.09;;;16.76;100.00
64352;BME280;50680;52.626;-8.668;2023-06-10T07:41:24;101047.38;;;16.78;100.00
64352;BME280;50680;52.626;-8.668;2023-06-10T07:43:54;101051.50;;;16.82;100.00
64352;BME280;50680;52.626;-8.668;2023-06-10T07:46:23;101060.66;;;16.89;100.00
64352;BME280;50680;52.626;-8.668;2023-06-10T07:48:51;101057.50;;;16.96;100.00
64352;BME280;50680;52.626;-8.668;2023-06-10T07:51:18;101051.72;;;17.02;100.00
64352;BME280;50680;52.626;-8.668;2023-06-10T07:53:45;101048.59;;;17.08;100.00
64352;BME280;50680;52.626;-8.668;2023-06-10T07:56:11;101061.56;;;17.11;100.00
64352;BME280;50680;52.626;-8.668;2023-06-10T07:58:39;101055.53;;;17.20;100.00
64352;BME280;50680;52.626;-8.668;2023-06-10T08:01:05;101060.75;;;17.32;100.00
64352;BME280;50680;52.626;-8.668;2023-06-10T08:03:33;101056.38;;;17.42;100.00
64352;BME280;50680;52.626;-8.668;2023-06-10T08:06:00;101058.66;;;17.46;100.00
64352;BME280;50680;52.626;-8.668;2023-06-10T08:08:27;101055.38;;;17.54;100.00
64352;BME280;50680;52.626;-8.668;2023-06-10T08:10:54;101052.13;;;17.72;100.00
64352;BME280;50680;52.626;-8.668;2023-06-10T08:13:21;101061.72;;;17.84;100.00
64352;BME280;50680;52.626;-8.668;2023-06-10T08:15:48;101053.41;;;17.89;100.00
64352;BME280;50680;52.626;-8.668;2023-06-10T08:18:17;101059.47;;;18.00;100.00
64352;BME280;50680;52.626;-8.668;2023-06-10T08:20:44;101067.88;;;18.06;100.00
64352;BME280;50680;52.626;-8.668;2023-06-10T08:23:11;101061.13;;;18.22;100.00
64352;BME280;50680;52.626;-8.668;2023-06-10T08:25:38;101064.63;;;18.54;100.00
64352;BME280;50680;52.626;-8.668;2023-06-10T08:28:05;101064.22;;;18.68;100.00
64352;BME280;50680;52.626;-8.668;2023-06-10T08:30:31;101060.25;;;18.84;100.00
64352;BME280;50680;52.626;-8.668;2023-06-10T08:32:59;101066.25;;;18.86;100.00
64352;BME280;50680;52.626;-8.668;2023-06-10T08:35:26;101064.28;;;18.78;100.00
64352;BME280;50680;52.626;-8.668;2023-06-10T08:37:53;101062.44;;;18.78;100.00
64352;BME280;50680;52.626;-8.668;2023-06-10T08:40:20;101040.81;;;18.83;100.00
64352;BME280;50680;52.626;-8.668;2023-06-10T08:43:08;101056.22;;;18.99;100.00
64352;BME280;50680;52.626;-8.668;2023-06-10T08:45:37;101049.38;;;19.26;100.00
64352;BME280;50680;52.626;-8.668;2023-06-10T08:48:05;101053.31;;;19.31;100.00
64352;BME280;50680;52.626;-8.668;2023-06-10T08:50:36;101050.38;;;19.54;100.00
64352;BME280;50680;52.626;-8.668;2023-06-10T08:53:05;101047.00;;;19.71;100.00
64352;BME280;50680;52.626;-8.668;2023-06-10T08:55:36;101046.25;;;19.99;100.00
64352;BME280;50680;52.626;-8.668;2023-06-10T08:58:04;101039.53;;;20.04;100.00
64352;BME280;50680;52.626;-8.668;2023-06-10T09:00:32;101051.69;;;20.07;100.00
64352;BME280;50680;52.626;-8.668;2023-06-10T09:02:59;101056.88;;;20.08;100.00
64352;BME280;50680;52.626;-8.668;2023-06-10T09:05:33;101050.44;;;20.01;100.00
64352;BME280;50680;52.626;-8.668;2023-06-10T09:08:01;101039.91;;;20.09;100.00
64352;BME280;50680;52.626;-8.668;2023-06-10T09:10:29;101047.31;;;20.16;100.00
64352;BME280;50680;52.626;-8.668;2023-06-10T09:12:56;101041.09;;;19.87;100.00
64352;BME280;50680;52.626;-8.668;2023-06-10T09:15:23;101041.91;;;20.07;100.00
64352;BME280;50680;52.626;-8.668;2023-06-10T09:17:51;101034.25;;;20.22;100.00
64352;BME280;50680;52.626;-8.668;2023-06-10T09:20:18;101042.59;;;20.47;100.00
64352;BME280;50680;52.626;-8.668;2023-06-10T09:22:45;101041.44;;;20.77;100.00
64352;BME280;50680;52.626;-8.668;2023-06-10T09:25:13;101043.72;;;20.90;100.00
64352;BME280;50680;52.626;-8.668;2023-06-10T09:27:50;101042.28;;;20.78;100.00
64352;BME280;50680;52.626;-8.668;2023-06-10T09:30:31;101039.75;;;20.76;100.00
64352;BME280;50680;52.626;-8.668;2023-06-10T09:33:00;101039.84;;;20.84;100.00
64352;BME280;50680;52.626;-8.668;2023-06-10T09:35:29;101040.22;;;20.72;100.00
64352;BME280;50680;52.626;-8.668;2023-06-10T09:37:58;101045.03;;;20.58;100.00
64352;BME280;50680;52.626;-8.668;2023-06-10T09:40:26;101041.88;;;20.73;100.00
64352;BME280;50680;52.626;-8.668;2023-06-10T09:42:54;101039.75;;;20.76;100.00
64352;BME280;50680;52.626;-8.668;2023-06-10T09:45:22;101035.88;;;20.71;100.00
64352;BME280;50680;52.626;-8.668;2023-06-10T09:47:53;101049.38;;;20.59;100.00
64352;BME280;50680;52.626;-8.668;2023-06-10T09:50:20;101049.97;;;20.53;100.00
64352;BME280;50680;52.626;-8.668;2023-06-10T09:52:47;101040.78;;;20.38;100.00
64352;BME280;50680;52.626;-8.668;2023-06-10T09:55:15;101044.38;;;20.19;100.00
64352;BME280;50680;52.626;-8.668;2023-06-10T09:57:42;101052.97;;;20.03;100.00
64352;BME280;50680;52.626;-8.668;2023-06-10T10:00:11;101068.13;;;19.92;100.00
64352;BME280;50680;52.626;-8.668;2023-06-10T10:02:52;101063.81;;;19.62;100.00
64352;BME280;50680;52.626;-8.668;2023-06-10T10:05:21;101058.06;;;19.47;100.00
64352;BME280;50680;52.626;-8.668;2023-06-10T10:07:50;101056.13;;;19.40;100.00
64352;BME280;50680;52.626;-8.668;2023-06-10T10:10:20;101058.09;;;19.28;100.00
64352;BME280;50680;52.626;-8.668;2023-06-10T10:12:48;101060.75;;;19.28;100.00
64352;BME280;50680;52.626;-8.668;2023-06-10T10:15:16;101066.72;;;19.20;100.00
64352;BME280;50680;52.626;-8.668;2023-06-10T10:18:00;101060.69;;;19.08;100.00
64352;BME280;50680;52.626;-8.668;2023-06-10T10:20:33;101061.56;;;19.19;100.00
64352;BME280;50680;52.626;-8.668;2023-06-10T10:23:03;101069.97;;;19.14;100.00
64352;BME280;50680;52.626;-8.668;2023-06-10T10:25:38;101062.81;;;19.14;100.00
64352;BME280;50680;52.626;-8.668;2023-06-10T10:28:12;101061.28;;;19.22;100.00
64352;BME280;50680;52.626;-8.668;2023-06-10T10:30:41;101057.38;;;19.35;100.00
64352;BME280;50680;52.626;-8.668;2023-06-10T10:33:12;101060.31;;;19.52;100.00
64352;BME280;50680;52.626;-8.668;2023-06-10T10:35:43;101058.31;;;19.64;100.00
64352;BME280;50680;52.626;-8.668;2023-06-10T10:38:12;101055.38;;;19.67;100.00
64352;BME280;50680;52.626;-8.668;2023-06-10T10:40:39;101058.03;;;19.67;100.00
64352;BME280;50680;52.626;-8.668;2023-06-10T10:43:06;101041.94;;;19.59;100.00
64352;BME280;50680;52.626;-8.668;2023-06-10T10:45:34;101057.78;;;19.70;100.00
64352;BME280;50680;52.626;-8.668;2023-06-10T10:48:19;101054.69;;;19.65;100.00
64352;BME280;50680;52.626;-8.668;2023-06-10T10:50:56;101074.59;;;19.61;100.00
64352;BME280;50680;52.626;-8.668;2023-06-10T10:53:24;101065.88;;;19.59;100.00
64352;BME280;50680;52.626;-8.668;2023-06-10T10:59:06;101053.47;;;19.30;100.00
64352;BME280;50680;52.626;-8.668;2023-06-10T11:01:41;101046.72;;;19.35;100.00
64352;BME280;50680;52.626;-8.668;2023-06-10T11:04:08;101051.78;;;19.48;100.00
64352;BME280;50680;52.626;-8.668;2023-06-10T11:06:36;101061.16;;;19.52;100.00
64352;BME280;50680;52.626;-8.668;2023-06-10T11:09:26;101026.47;;;19.34;100.00
64352;BME280;50680;52.626;-8.668;2023-06-10T11:11:57;101064.78;;;19.51;100.00
64352;BME280;50680;52.626;-8.668;2023-06-10T11:14:27;101055.56;;;19.46;100.00
64352;BME280;50680;52.626;-8.668;2023-06-10T11:17:00;101061.44;;;19.49;100.00
64352;BME280;50680;52.626;-8.668;2023-06-10T11:22:03;101055.41;;;19.47;100.00
64352;BME280;50680;52.626;-8.668;2023-06-10T11:24:30;101057.06;;;19.58;100.00
64352;BME280;50680;52.626;-8.668;2023-06-10T11:27:18;101058.31;;;19.64;100.00
64352;BME280;50680;52.626;-8.668;2023-06-10T11:32:32;101059.72;;;19.97;100.00
64352;BME280;50680;52.626;-8.668;2023-06-10T11:35:03;101051.19;;;19.94;100.00
64352;BME280;50680;52.626;-8.668;2023-06-10T11:37:30;101057.63;;;19.91;100.00
64352;BME280;50680;52.626;-8.668;2023-06-10T11:39:57;101054.69;;;19.84;100.00
64352;BME280;50680;52.626;-8.668;2023-06-10T11:42:25;101047.00;;;19.81;100.00
64352;BME280;50680;52.626;-8.668;2023-06-10T11:44:53;101051.03;;;19.95;100.00
64352;BME280;50680;52.626;-8.668;2023-06-10T11:47:20;101055.34;;;20.06;100.00
64352;BME280;50680;52.626;-8.668;2023-06-10T11:49:57;101054.31;;;20.26;100.00
64352;BME280;50680;52.626;-8.668;2023-06-10T11:52:31;101042.22;;;20.32;100.00
64352;BME280;50680;52.626;-8.668;2023-06-10T11:55:00;101053.41;;;20.36;100.00
64352;BME280;50680;52.626;-8.668;2023-06-10T11:57:27;101046.72;;;20.32;100.00
64352;BME280;50680;52.626;-8.668;2023-06-10T11:59:54;101054.50;;;20.43;100.00
64352;BME280;50680;52.626;-8.668;2023-06-10T12:02:21;101054.59;;;20.51;100.00
64352;BME280;50680;52.626;-8.668;2023-06-10T12:04:49;101053.84;;;20.59;100.00
64352;BME280;50680;52.626;-8.668;2023-06-10T12:07:19;101046.88;;;20.58;100.00
64352;BME280;50680;52.626;-8.668;2023-06-10T12:09:46;101046.72;;;20.59;100.00
64352;BME280;50680;52.626;-8.668;2023-06-10T12:12:13;101042.94;;;20.62;100.00
64352;BME280;50680;52.626;-8.668;2023-06-10T12:14:59;101050.34;;;20.58;100.00
64352;BME280;50680;52.626;-8.668;2023-06-10T12:20:08;101062.84;;;20.58;100.00
64352;BME280;50680;52.626;-8.668;2023-06-10T12:22:42;101059.81;;;20.43;100.00
64352;BME280;50680;52.626;-8.668;2023-06-10T12:25:10;101050.19;;;20.42;100.00
64352;BME280;50680;52.626;-8.668;2023-06-10T12:27:39;101066.03;;;20.34;100.00
64352;BME280;50680;52.626;-8.668;2023-06-10T12:30:07;101057.25;;;20.23;100.00
64352;BME280;50680;52.626;-8.668;2023-06-10T12:32:39;101067.38;;;20.10;100.00
64352;BME280;50680;52.626;-8.668;2023-06-10T12:35:08;101059.97;;;20.04;100.00
64352;BME280;50680;52.626;-8.668;2023-06-10T12:37:37;101054.53;;;20.05;100.00
64352;BME280;50680;52.626;-8.668;2023-06-10T12:40:09;101052.28;;;20.01;100.00
64352;BME280;50680;52.626;-8.668;2023-06-10T12:42:37;101056.84;;;20.18;100.00
64352;BME280;50680;52.626;-8.668;2023-06-10T12:45:05;101057.38;;;20.22;100.00
64352;BME280;50680;52.626;-8.668;2023-06-10T12:47:36;101052.59;;;20.35;100.00
64352;BME280;50680;52.626;-8.668;2023-06-10T12:50:06;101058.38;;;20.48;100.00